sensor_id;sensor_type;location;lat;lon;timestamp;P1;durP1;ratioP1;P2;durP2;ratioP2
19374;SDS011;9823;50.936;4.046;2023-01-19T00:01:19;15.73;;;8.70;;
19374;SDS011;9823;50.936;4.046;2023-01-19T00:03:47;15.13;;;8.63;;
19374;SDS011;9823;50.936;4.046;2023-01-19T00:06:16;19.23;;;8.80;;
19374;SDS011;9823;50.936;4.046;2023-01-19T00:08:42;14.67;;;8.87;;
19374;SDS011;9823;50.936;4.046;2023-01-19T00:11:13;13.67;;;8.60;;
19374;SDS011;9823;50.936;4.046;2023-01-19T00:13:41;18.13;;;8.60;;
19374;SDS011;9823;50.936;4.046;2023-01-19T00:16:13;14.87;;;8.50;;
19374;SDS011;9823;50.936;4.046;2023-01-19T00:18:41;11.93;;;7.73;;
19374;SDS011;9823;50.936;4.046;2023-01-19T00:21:07;16.57;;;8.20;;
19374;SDS011;9823;50.936;4.046;2023-01-19T00:23:33;15.20;;;8.17;;
19374;SDS011;9823;50.936;4.046;2023-01-19T00:25:59;16.33;;;8.00;;
19374;SDS011;9823;50.936;4.046;2023-01-19T00:28:25;16.80;;;7.97;;
19374;SDS011;9823;50.936;4.046;2023-01-19T00:30:51;13.70;;;7.70;;
19374;SDS011;9823;50.936;4.046;2023-01-19T00:33:17;17.37;;;8.20;;
19374;SDS011;9823;50.936;4.046;2023-01-19T00:35:43;14.73;;;8.27;;
19374;SDS011;9823;50.936;4.046;2023-01-19T00:38:10;14.70;;;8.33;;
19374;SDS011;9823;50.936;4.046;2023-01-19T00:40:36;17.60;;;8.40;;
19374;SDS011;9823;50.936;4.046;2023-01-19T00:43:02;13.20;;;8.03;;
19374;SDS011;9823;50.936;4.046;2023-01-19T00:45:29;18.20;;;8.00;;
19374;SDS011;9823;50.936;4.046;2023-01-19T00:47:55;16.77;;;8.30;;
19374;SDS011;9823;50.936;4.046;2023-01-19T00:50:24;18.40;;;8.23;;
19374;SDS011;9823;50.936;4.046;2023-01-19T00:52:51;17.60;;;8.23;;
19374;SDS011;9823;50.936;4.046;2023-01-19T00:55:17;15.57;;;8.57;;
19374;SDS011;9823;50.936;4.046;2023-01-19T00:57:43;16.57;;;7.90;;
19374;SDS011;9823;50.936;4.046;2023-01-19T01:00:11;20.67;;;9.07;;
19374;SDS011;9823;50.936;4.046;2023-01-19T01:02:40;18.77;;;8.57;;
19374;SDS011;9823;50.936;4.046;2023-01-19T01:05:06;13.97;;;7.90;;
19374;SDS011;9823;50.936;4.046;2023-01-19T01:07:32;18.00;;;8.17;;
19374;SDS011;9823;50.936;4.046;2023-01-19T01:10:08;17.00;;;7.57;;
19374;SDS011;9823;50.936;4.046;2023-01-19T01:12:35;13.03;;;7.43;;
19374;SDS011;9823;50.936;4.046;2023-01-19T01:15:01;13.50;;;7.37;;
19374;SDS011;9823;50.936;4.046;2023-01-19T01:17:27;15.23;;;7.57;;
19374;SDS011;9823;50.936;4.046;2023-01-19T01:19:55;17.67;;;7.67;;
19374;SDS011;9823;50.936;4.046;2023-01-19T01:22:21;16.70;;;7.30;;
19374;SDS011;9823;50.936;4.046;2023-01-19T01:24:47;18.27;;;7.40;;
19374;SDS011;9823;50.936;4.046;2023-01-19T01:27:16;12.17;;;7.17;;
19374;SDS011;9823;50.936;4.046;2023-01-19T01:29:44;16.03;;;7.47;;
19374;SDS011;9823;50.936;4.046;2023-01-19T01:32:13;17.73;;;7.73;;
19374;SDS011;9823;50.936;4.046;2023-01-19T01:34:39;13.17;;;6.93;;
19374;SDS011;9823;50.936;4.046;2023-01-19T01:37:06;17.73;;;7.60;;
19374;SDS011;9823;50.936;4.046;2023-01-19T01:39:35;15.43;;;7.30;;
19374;SDS011;9823;50.936;4.046;2023-01-19T01:42:07;16.43;;;7.33;;
19374;SDS011;9823;50.936;4.046;2023-01-19T01:47:25;15.20;;;7.77;;
19374;SDS011;9823;50.936;4.046;2023-01-19T01:52:28;14.40;;;7.10;;
19374;SDS011;9823;50.936;4.046;2023-01-19T01:54:56;14.40;;;6.77;;
19374;SDS011;9823;50.936;4.046;2023-01-19T01:57:25;20.30;;;7.23;;
19374;SDS011;9823;50.936;4.046;2023-01-19T01:59:51;13.43;;;6.80;;
19374;SDS011;9823;50.936;4.046;2023-01-19T02:02:20;15.43;;;7.30;;
19374;SDS011;9823;50.936;4.046;2023-01-19T02:05:23;15.73;;;7.50;;
19374;SDS011;9823;50.936;4.046;2023-01-19T02:10:34;14.23;;;7.07;;
19374;SDS011;9823;50.936;4.046;2023-01-19T02:13:19;11.83;;;6.63;;
19374;SDS011;9823;50.936;4.046;2023-01-19T02:15:55;14.03;;;6.60;;
19374;SDS011;9823;50.936;4.046;2023-01-19T02:18:23;14.50;;;7.10;;
19374;SDS011;9823;50.936;4.046;2023-01-19T02:20:51;15.00;;;6.37;;
19374;SDS011;9823;50.936;4.046;2023-01-19T02:23:36;16.90;;;7.07;;
19374;SDS011;9823;50.936;4.046;2023-01-19T02:26:03;14.30;;;7.13;;
19374;SDS011;9823;50.936;4.046;2023-01-19T02:28:29;12.67;;;7.00;;
19374;SDS011;9823;50.936;4.046;2023-01-19T02:30:55;16.07;;;7.40;;
19374;SDS011;9823;50.936;4.046;2023-01-19T02:33:21;17.73;;;7.73;;
19374;SDS011;9823;50.936;4.046;2023-01-19T02:35:48;19.87;;;7.77;;
19374;SDS011;9823;50.936;4.046;2023-01-19T02:38:17;17.70;;;7.37;;
19374;SDS011;9823;50.936;4.046;2023-01-19T02:40:46;15.10;;;7.30;;
19374;SDS011;9823;50.936;4.046;2023-01-19T02:43:13;19.33;;;7.67;;
19374;SDS011;9823;50.936;4.046;2023-01-19T02:45:40;16.67;;;7.67;;
19374;SDS011;9823;50.936;4.046;2023-01-19T02:48:07;17.00;;;7.70;;
19374;SDS011;9823;50.936;4.046;2023-01-19T02:50:37;14.60;;;7.80;;
19374;SDS011;9823;50.936;4.046;2023-01-19T02:56:05;17.57;;;8.37;;
19374;SDS011;9823;50.936;4.046;2023-01-19T02:58:34;16.20;;;7.40;;
19374;SDS011;9823;50.936;4.046;2023-01-19T03:04:34;21.60;;;8.23;;
19374;SDS011;9823;50.936;4.046;2023-01-19T03:06:34;18.80;;;7.87;;
19374;SDS011;9823;50.936;4.046;2023-01-19T03:09:02;19.87;;;8.67;;
19374;SDS011;9823;50.936;4.046;2023-01-19T03:11:32;16.80;;;8.90;;
19374;SDS011;9823;50.936;4.046;2023-01-19T03:14:08;17.97;;;8.57;;
19374;SDS011;9823;50.936;4.046;2023-01-19T03:16:40;21.07;;;8.50;;
19374;SDS011;9823;50.936;4.046;2023-01-19T03:19:08;16.50;;;7.80;;
19374;SDS011;9823;50.936;4.046;2023-01-19T03:21:36;18.83;;;8.57;;
19374;SDS011;9823;50.936;4.046;2023-01-19T03:24:06;19.30;;;8.00;;
19374;SDS011;9823;50.936;4.046;2023-01-19T03:26:38;14.87;;;8.00;;
19374;SDS011;9823;50.936;4.046;2023-01-19T03:29:07;15.33;;;8.07;;
19374;SDS011;9823;50.936;4.046;2023-01-19T03:31:35;17.03;;;7.73;;
19374;SDS011;9823;50.936;4.046;2023-01-19T03:34:02;16.57;;;7.83;;
19374;SDS011;9823;50.936;4.046;2023-01-19T03:38:59;16.73;;;7.70;;
19374;SDS011;9823;50.936;4.046;2023-01-19T03:41:26;14.07;;;7.77;;
19374;SDS011;9823;50.936;4.046;2023-01-19T03:43:52;15.93;;;8.17;;
19374;SDS011;9823;50.936;4.046;2023-01-19T03:46:19;20.37;;;9.37;;
19374;SDS011;9823;50.936;4.046;2023-01-19T03:48:46;16.57;;;7.70;;
19374;SDS011;9823;50.936;4.046;2023-01-19T03:51:12;20.27;;;8.30;;
19374;SDS011;9823;50.936;4.046;2023-01-19T03:53:39;15.93;;;8.00;;
19374;SDS011;9823;50.936;4.046;2023-01-19T03:56:10;19.87;;;8.40;;
19374;SDS011;9823;50.936;4.046;2023-01-19T03:58:39;15.67;;;8.57;;
19374;SDS011;9823;50.936;4.046;2023-01-19T04:01:06;17.37;;;8.50;;
19374;SDS011;9823;50.936;4.046;2023-01-19T04:03:32;19.23;;;9.33;;
19374;SDS011;9823;50.936;4.046;2023-01-19T04:05:58;20.97;;;9.03;;
19374;SDS011;9823;50.936;4.046;2023-01-19T04:08:24;15.50;;;8.87;;
19374;SDS011;9823;50.936;4.046;2023-01-19T04:10:50;18.33;;;8.57;;
19374;SDS011;9823;50.936;4.046;2023-01-19T04:13:16;20.60;;;8.90;;
19374;SDS011;9823;50.936;4.046;2023-01-19T04:15:42;16.23;;;9.17;;
19374;SDS011;9823;50.936;4.046;2023-01-19T04:18:08;22.33;;;9.00;;
19374;SDS011;9823;50.936;4.046;2023-01-19T04:20:34;14.87;;;8.87;;
19374;SDS011;9823;50.936;4.046;2023-01-19T04:23:00;15.87;;;8.67;;
19374;SDS011;9823;50.936;4.046;2023-01-19T04:25:26;19.33;;;9.70;;
19374;SDS011;9823;50.936;4.046;2023-01-19T04:27:53;18.07;;;9.37;;
19374;SDS011;9823;50.936;4.046;2023-01-19T04:30:19;18.17;;;9.50;;
19374;SDS011;9823;50.936;4.046;2023-01-19T04:32:46;19.60;;;10.17;;
19374;SDS011;9823;50.936;4.046;2023-01-19T04:35:15;18.87;;;10.50;;
19374;SDS011;9823;50.936;4.046;2023-01-19T04:37:41;17.40;;;10.13;;
19374;SDS011;9823;50.936;4.046;2023-01-19T04:40:08;18.10;;;10.23;;
19374;SDS011;9823;50.936;4.046;2023-01-19T04:42:35;24.00;;;9.53;;
19374;SDS011;9823;50.936;4.046;2023-01-19T04:45:10;20.50;;;9.17;;
19374;SDS011;9823;50.936;4.046;2023-01-19T04:47:36;17.30;;;10.17;;
19374;SDS011;9823;50.936;4.046;2023-01-19T04:50:02;19.70;;;9.20;;
19374;SDS011;9823;50.936;4.046;2023-01-19T04:52:33;22.00;;;9.93;;
19374;SDS011;9823;50.936;4.046;2023-01-19T04:55:00;20.73;;;10.13;;
19374;SDS011;9823;50.936;4.046;2023-01-19T04:57:26;17.43;;;8.80;;
19374;SDS011;9823;50.936;4.046;2023-01-19T04:59:52;18.60;;;10.07;;
19374;SDS011;9823;50.936;4.046;2023-01-19T05:02:18;18.50;;;9.27;;
19374;SDS011;9823;50.936;4.046;2023-01-19T05:04:44;16.37;;;9.57;;
19374;SDS011;9823;50.936;4.046;2023-01-19T05:07:10;17.50;;;9.73;;
19374;SDS011;9823;50.936;4.046;2023-01-19T05:09:36;22.57;;;9.50;;
19374;SDS011;9823;50.936;4.046;2023-01-19T05:12:02;21.60;;;10.60;;
19374;SDS011;9823;50.936;4.046;2023-01-19T05:14:28;23.70;;;10.87;;
19374;SDS011;9823;50.936;4.046;2023-01-19T05:16:55;22.27;;;10.17;;
19374;SDS011;9823;50.936;4.046;2023-01-19T05:19:21;21.17;;;10.83;;
19374;SDS011;9823;50.936;4.046;2023-01-19T05:21:47;19.43;;;10.33;;
19374;SDS011;9823;50.936;4.046;2023-01-19T05:24:13;19.03;;;9.13;;
19374;SDS011;9823;50.936;4.046;2023-01-19T05:26:39;27.53;;;10.57;;
19374;SDS011;9823;50.936;4.046;2023-01-19T05:29:08;20.43;;;10.27;;
19374;SDS011;9823;50.936;4.046;2023-01-19T05:31:34;19.73;;;9.47;;
19374;SDS011;9823;50.936;4.046;2023-01-19T05:34:01;19.70;;;10.80;;
19374;SDS011;9823;50.936;4.046;2023-01-19T05:36:27;25.70;;;10.07;;
19374;SDS011;9823;50.936;4.046;2023-01-19T05:38:56;22.23;;;10.23;;
19374;SDS011;9823;50.936;4.046;2023-01-19T05:41:22;20.00;;;9.30;;
19374;SDS011;9823;50.936;4.046;2023-01-19T05:43:48;25.73;;;10.53;;
19374;SDS011;9823;50.936;4.046;2023-01-19T05:46:14;22.73;;;10.27;;
19374;SDS011;9823;50.936;4.046;2023-01-19T05:48:40;20.80;;;10.73;;
19374;SDS011;9823;50.936;4.046;2023-01-19T05:51:06;22.33;;;10.10;;
19374;SDS011;9823;50.936;4.046;2023-01-19T05:53:32;17.27;;;9.93;;
19374;SDS011;9823;50.936;4.046;2023-01-19T05:56:02;26.30;;;11.53;;
19374;SDS011;9823;50.936;4.046;2023-01-19T05:58:32;19.10;;;9.73;;
19374;SDS011;9823;50.936;4.046;2023-01-19T06:01:03;21.37;;;9.67;;
19374;SDS011;9823;50.936;4.046;2023-01-19T06:03:29;24.57;;;9.70;;
19374;SDS011;9823;50.936;4.046;2023-01-19T06:05:56;21.23;;;9.97;;
19374;SDS011;9823;50.936;4.046;2023-01-19T06:08:28;20.30;;;10.00;;
19374;SDS011;9823;50.936;4.046;2023-01-19T06:10:54;21.27;;;10.40;;
19374;SDS011;9823;50.936;4.046;2023-01-19T06:13:20;19.20;;;9.83;;
19374;SDS011;9823;50.936;4.046;2023-01-19T06:15:46;24.37;;;10.27;;
19374;SDS011;9823;50.936;4.046;2023-01-19T06:18:12;19.83;;;10.93;;
19374;SDS011;9823;50.936;4.046;2023-01-19T06:20:39;19.03;;;9.87;;
19374;SDS011;9823;50.936;4.046;2023-01-19T06:23:05;27.97;;;11.17;;
19374;SDS011;9823;50.936;4.046;2023-01-19T06:25:31;25.60;;;11.03;;
19374;SDS011;9823;50.936;4.046;2023-01-19T06:27:57;20.80;;;10.13;;
19374;SDS011;9823;50.936;4.046;2023-01-19T06:30:23;18.47;;;9.87;;
19374;SDS011;9823;50.936;4.046;2023-01-19T06:32:51;27.13;;;10.90;;
19374;SDS011;9823;50.936;4.046;2023-01-19T06:35:17;25.47;;;10.87;;
19374;SDS011;9823;50.936;4.046;2023-01-19T06:37:43;27.37;;;11.40;;
19374;SDS011;9823;50.936;4.046;2023-01-19T06:40:09;26.53;;;11.43;;
19374;SDS011;9823;50.936;4.046;2023-01-19T06:42:40;24.80;;;10.97;;
19374;SDS011;9823;50.936;4.046;2023-01-19T06:45:06;22.07;;;11.37;;
19374;SDS011;9823;50.936;4.046;2023-01-19T06:47:34;24.50;;;11.50;;
19374;SDS011;9823;50.936;4.046;2023-01-19T06:50:00;24.43;;;11.33;;
19374;SDS011;9823;50.936;4.046;2023-01-19T06:52:26;23.63;;;11.33;;
19374;SDS011;9823;50.936;4.046;2023-01-19T06:54:52;21.80;;;10.30;;
19374;SDS011;9823;50.936;4.046;2023-01-19T06:57:18;23.20;;;10.77;;
19374;SDS011;9823;50.936;4.046;2023-01-19T06:59:44;24.70;;;12.40;;
19374;SDS011;9823;50.936;4.046;2023-01-19T07:02:10;23.77;;;11.53;;
19374;SDS011;9823;50.936;4.046;2023-01-19T07:04:36;22.97;;;11.53;;
19374;SDS011;9823;50.936;4.046;2023-01-19T07:07:05;25.13;;;10.97;;
19374;SDS011;9823;50.936;4.046;2023-01-19T07:09:33;25.50;;;11.33;;
19374;SDS011;9823;50.936;4.046;2023-01-19T07:11:59;25.17;;;11.13;;
19374;SDS011;9823;50.936;4.046;2023-01-19T07:14:25;22.37;;;10.80;;
19374;SDS011;9823;50.936;4.046;2023-01-19T07:16:57;21.77;;;10.03;;
19374;SDS011;9823;50.936;4.046;2023-01-19T07:19:23;22.57;;;10.63;;
19374;SDS011;9823;50.936;4.046;2023-01-19T07:21:49;24.20;;;10.30;;
19374;SDS011;9823;50.936;4.046;2023-01-19T07:24:15;25.37;;;10.63;;
19374;SDS011;9823;50.936;4.046;2023-01-19T07:26:41;26.23;;;11.13;;
19374;SDS011;9823;50.936;4.046;2023-01-19T07:29:07;29.13;;;11.27;;
19374;SDS011;9823;50.936;4.046;2023-01-19T07:31:34;22.03;;;10.60;;
19374;SDS011;9823;50.936;4.046;2023-01-19T07:34:07;26.33;;;10.97;;
19374;SDS011;9823;50.936;4.046;2023-01-19T07:36:33;28.17;;;10.83;;
19374;SDS011;9823;50.936;4.046;2023-01-19T07:39:00;25.10;;;10.70;;
19374;SDS011;9823;50.936;4.046;2023-01-19T07:41:28;23.57;;;11.57;;
19374;SDS011;9823;50.936;4.046;2023-01-19T07:43:54;30.70;;;11.70;;
19374;SDS011;9823;50.936;4.046;2023-01-19T07:46:20;23.93;;;11.67;;
19374;SDS011;9823;50.936;4.046;2023-01-19T07:48:48;25.23;;;11.13;;
19374;SDS011;9823;50.936;4.046;2023-01-19T07:51:14;28.57;;;11.10;;
19374;SDS011;9823;50.936;4.046;2023-01-19T07:53:43;33.10;;;12.70;;
19374;SDS011;9823;50.936;4.046;2023-01-19T07:56:10;37.00;;;12.20;;
19374;SDS011;9823;50.936;4.046;2023-01-19T07:58:36;28.43;;;11.87;;
19374;SDS011;9823;50.936;4.046;2023-01-19T08:01:06;30.60;;;12.13;;
19374;SDS011;9823;50.936;4.046;2023-01-19T08:03:32;23.73;;;11.67;;
19374;SDS011;9823;50.936;4.046;2023-01-19T08:05:58;25.17;;;11.17;;
19374;SDS011;9823;50.936;4.046;2023-01-19T08:08:24;25.23;;;12.37;;
19374;SDS011;9823;50.936;4.046;2023-01-19T08:10:51;21.10;;;11.60;;
19374;SDS011;9823;50.936;4.046;2023-01-19T08:13:21;24.57;;;12.23;;
19374;SDS011;9823;50.936;4.046;2023-01-19T08:15:48;23.03;;;11.93;;
19374;SDS011;9823;50.936;4.046;2023-01-19T08:18:15;27.37;;;12.07;;
19374;SDS011;9823;50.936;4.046;2023-01-19T08:20:49;22.30;;;12.13;;
19374;SDS011;9823;50.936;4.046;2023-01-19T08:23:15;23.97;;;12.27;;
19374;SDS011;9823;50.936;4.046;2023-01-19T08:25:48;21.63;;;11.73;;
19374;SDS011;9823;50.936;4.046;2023-01-19T08:28:20;27.43;;;11.40;;
19374;SDS011;9823;50.936;4.046;2023-01-19T08:30:46;24.23;;;11.20;;
19374;SDS011;9823;50.936;4.046;2023-01-19T08:33:18;22.10;;;10.97;;
19374;SDS011;9823;50.936;4.046;2023-01-19T08:35:46;34.97;;;12.00;;
19374;SDS011;9823;50.936;4.046;2023-01-19T08:38:13;25.97;;;11.93;;
19374;SDS011;9823;50.936;4.046;2023-01-19T08:40:39;26.23;;;11.67;;
19374;SDS011;9823;50.936;4.046;2023-01-19T08:43:15;30.70;;;12.17;;
19374;SDS011;9823;50.936;4.046;2023-01-19T08:45:42;23.00;;;11.73;;
19374;SDS011;9823;50.936;4.046;2023-01-19T08:48:13;23.77;;;12.23;;
19374;SDS011;9823;50.936;4.046;2023-01-19T08:50:40;24.77;;;12.23;;
19374;SDS011;9823;50.936;4.046;2023-01-19T08:53:06;26.00;;;12.73;;
19374;SDS011;9823;50.936;4.046;2023-01-19T08:55:35;24.33;;;12.37;;
19374;SDS011;9823;50.936;4.046;2023-01-19T08:58:02;25.80;;;12.20;;
19374;SDS011;9823;50.936;4.046;2023-01-19T09:00:29;26.00;;;13.13;;
19374;SDS011;9823;50.936;4.046;2023-01-19T09:02:59;26.30;;;12.60;;
19374;SDS011;9823;50.936;4.046;2023-01-19T09:05:31;28.57;;;13.23;;
19374;SDS011;9823;50.936;4.046;2023-01-19T09:08:00;30.50;;;14.13;;
19374;SDS011;9823;50.936;4.046;2023-01-19T09:10:27;33.73;;;15.00;;
19374;SDS011;9823;50.936;4.046;2023-01-19T09:12:56;30.33;;;14.47;;
19374;SDS011;9823;50.936;4.046;2023-01-19T09:15:22;31.03;;;14.73;;
19374;SDS011;9823;50.936;4.046;2023-01-19T09:17:50;36.23;;;16.50;;
19374;SDS011;9823;50.936;4.046;2023-01-19T09:20:17;39.97;;;17.73;;
19374;SDS011;9823;50.936;4.046;2023-01-19T09:22:43;36.40;;;16.53;;
19374;SDS011;9823;50.936;4.046;2023-01-19T09:25:12;35.93;;;18.03;;
19374;SDS011;9823;50.936;4.046;2023-01-19T09:27:38;37.93;;;16.80;;
19374;SDS011;9823;50.936;4.046;2023-01-19T09:30:04;37.47;;;17.40;;
19374;SDS011;9823;50.936;4.046;2023-01-19T09:32:30;40.23;;;16.93;;
19374;SDS011;9823;50.936;4.046;2023-01-19T09:34:57;35.73;;;17.63;;
19374;SDS011;9823;50.936;4.046;2023-01-19T09:37:23;35.83;;;14.63;;
19374;SDS011;9823;50.936;4.046;2023-01-19T09:39:49;36.47;;;15.87;;
19374;SDS011;9823;50.936;4.046;2023-01-19T09:44:43;43.40;;;16.63;;
19374;SDS011;9823;50.936;4.046;2023-01-19T09:47:14;32.70;;;14.70;;
19374;SDS011;9823;50.936;4.046;2023-01-19T09:49:57;33.83;;;16.00;;
19374;SDS011;9823;50.936;4.046;2023-01-19T09:52:26;32.87;;;14.57;;
19374;SDS011;9823;50.936;4.046;2023-01-19T09:57:21;33.53;;;15.87;;
19374;SDS011;9823;50.936;4.046;2023-01-19T09:59:56;31.80;;;13.57;;
19374;SDS011;9823;50.936;4.046;2023-01-19T10:09:58;34.63;;;14.53;;
19374;SDS011;9823;50.936;4.046;2023-01-19T10:20:47;36.77;;;14.93;;
19374;SDS011;9823;50.936;4.046;2023-01-19T10:23:17;36.97;;;15.87;;
19374;SDS011;9823;50.936;4.046;2023-01-19T10:25:45;35.80;;;15.23;;
19374;SDS011;9823;50.936;4.046;2023-01-19T10:28:12;39.17;;;15.80;;
19374;SDS011;9823;50.936;4.046;2023-01-19T10:30:38;37.23;;;15.67;;
19374;SDS011;9823;50.936;4.046;2023-01-19T10:33:07;36.70;;;15.07;;
19374;SDS011;9823;50.936;4.046;2023-01-19T10:35:35;32.77;;;15.10;;
19374;SDS011;9823;50.936;4.046;2023-01-19T10:38:02;39.33;;;14.97;;
19374;SDS011;9823;50.936;4.046;2023-01-19T10:42:57;32.80;;;14.47;;
19374;SDS011;9823;50.936;4.046;2023-01-19T10:45:29;32.23;;;13.60;;
19374;SDS011;9823;50.936;4.046;2023-01-19T10:48:03;30.70;;;14.23;;
19374;SDS011;9823;50.936;4.046;2023-01-19T10:50:31;31.63;;;13.80;;
19374;SDS011;9823;50.936;4.046;2023-01-19T10:53:01;34.83;;;14.67;;
19374;SDS011;9823;50.936;4.046;2023-01-19T10:55:33;45.20;;;19.33;;
19374;SDS011;9823;50.936;4.046;2023-01-19T10:57:59;29.90;;;13.67;;
19374;SDS011;9823;50.936;4.046;2023-01-19T11:00:39;29.10;;;13.57;;
19374;SDS011;9823;50.936;4.046;2023-01-19T11:05:50;29.13;;;14.20;;
19374;SDS011;9823;50.936;4.046;2023-01-19T11:08:23;28.47;;;13.23;;
19374;SDS011;9823;50.936;4.046;2023-01-19T11:11:00;31.07;;;13.97;;
19374;SDS011;9823;50.936;4.046;2023-01-19T11:13:28;31.80;;;12.77;;
19374;SDS011;9823;50.936;4.046;2023-01-19T11:15:58;29.37;;;12.83;;
19374;SDS011;9823;50.936;4.046;2023-01-19T11:18:26;26.43;;;12.73;;
19374;SDS011;9823;50.936;4.046;2023-01-19T11:20:56;24.40;;;12.20;;
19374;SDS011;9823;50.936;4.046;2023-01-19T11:25:49;26.50;;;12.43;;
19374;SDS011;9823;50.936;4.046;2023-01-19T11:28:21;26.60;;;11.97;;
19374;SDS011;9823;50.936;4.046;2023-01-19T11:31:02;25.37;;;12.03;;
19374;SDS011;9823;50.936;4.046;2023-01-19T11:38:43;26.13;;;12.53;;
19374;SDS011;9823;50.936;4.046;2023-01-19T11:41:14;24.43;;;12.17;;
19374;SDS011;9823;50.936;4.046;2023-01-19T11:43:41;25.80;;;11.80;;
19374;SDS011;9823;50.936;4.046;2023-01-19T11:46:07;25.57;;;12.33;;
19374;SDS011;9823;50.936;4.046;2023-01-19T11:48:38;29.80;;;13.20;;
19374;SDS011;9823;50.936;4.046;2023-01-19T11:51:14;28.27;;;12.60;;
19374;SDS011;9823;50.936;4.046;2023-01-19T11:53:42;25.70;;;11.87;;
19374;SDS011;9823;50.936;4.046;2023-01-19T11:56:12;30.47;;;13.20;;
19374;SDS011;9823;50.936;4.046;2023-01-19T11:58:39;27.97;;;13.10;;
19374;SDS011;9823;50.936;4.046;2023-01-19T12:01:09;28.00;;;12.63;;
19374;SDS011;9823;50.936;4.046;2023-01-19T12:03:39;26.13;;;12.17;;
19374;SDS011;9823;50.936;4.046;2023-01-19T12:06:07;29.53;;;13.10;;
19374;SDS011;9823;50.936;4.046;2023-01-19T12:08:45;27.07;;;13.03;;
19374;SDS011;9823;50.936;4.046;2023-01-19T12:11:16;29.07;;;12.90;;
19374;SDS011;9823;50.936;4.046;2023-01-19T12:13:44;24.27;;;12.17;;
19374;SDS011;9823;50.936;4.046;2023-01-19T12:16:18;28.00;;;13.07;;
19374;SDS011;9823;50.936;4.046;2023-01-19T12:18:53;23.63;;;12.23;;
19374;SDS011;9823;50.936;4.046;2023-01-19T12:21:20;24.20;;;11.10;;
19374;SDS011;9823;50.936;4.046;2023-01-19T12:24:02;27.07;;;12.47;;
19374;SDS011;9823;50.936;4.046;2023-01-19T12:29:16;28.67;;;12.37;;
19374;SDS011;9823;50.936;4.046;2023-01-19T12:31:43;25.70;;;12.53;;
19374;SDS011;9823;50.936;4.046;2023-01-19T12:36:55;26.73;;;12.13;;
19374;SDS011;9823;50.936;4.046;2023-01-19T12:39:22;26.17;;;12.83;;
19374;SDS011;9823;50.936;4.046;2023-01-19T12:42:35;24.77;;;12.33;;
19374;SDS011;9823;50.936;4.046;2023-01-19T12:44:42;23.70;;;12.67;;
19374;SDS011;9823;50.936;4.046;2023-01-19T12:49:42;23.33;;;11.50;;
19374;SDS011;9823;50.936;4.046;2023-01-19T12:57:27;25.03;;;11.33;;
19374;SDS011;9823;50.936;4.046;2023-01-19T13:00:03;24.87;;;12.20;;
19374;SDS011;9823;50.936;4.046;2023-01-19T13:05:13;29.27;;;12.07;;
19374;SDS011;9823;50.936;4.046;2023-01-19T13:13:16;27.17;;;12.37;;
19374;SDS011;9823;50.936;4.046;2023-01-19T13:15:42;26.17;;;11.80;;
19374;SDS011;9823;50.936;4.046;2023-01-19T13:18:08;25.93;;;12.63;;
19374;SDS011;9823;50.936;4.046;2023-01-19T13:20:42;25.63;;;12.67;;
19374;SDS011;9823;50.936;4.046;2023-01-19T13:26:11;31.07;;;12.80;;
19374;SDS011;9823;50.936;4.046;2023-01-19T13:28:49;25.00;;;11.60;;
19374;SDS011;9823;50.936;4.046;2023-01-19T13:31:24;26.53;;;12.57;;
19374;SDS011;9823;50.936;4.046;2023-01-19T13:33:53;23.33;;;10.93;;
19374;SDS011;9823;50.936;4.046;2023-01-19T13:36:22;23.83;;;12.97;;
19374;SDS011;9823;50.936;4.046;2023-01-19T13:38:50;23.83;;;12.67;;
19374;SDS011;9823;50.936;4.046;2023-01-19T13:41:26;25.17;;;11.83;;
19374;SDS011;9823;50.936;4.046;2023-01-19T13:43:57;25.73;;;12.63;;
19374;SDS011;9823;50.936;4.046;2023-01-19T13:46:24;27.57;;;12.57;;
19374;SDS011;9823;50.936;4.046;2023-01-19T13:48:55;25.30;;;11.20;;
19374;SDS011;9823;50.936;4.046;2023-01-19T13:51:22;22.37;;;11.90;;
19374;SDS011;9823;50.936;4.046;2023-01-19T13:53:55;25.93;;;12.30;;
19374;SDS011;9823;50.936;4.046;2023-01-19T13:56:21;24.40;;;10.80;;
19374;SDS011;9823;50.936;4.046;2023-01-19T14:01:23;23.33;;;12.17;;
19374;SDS011;9823;50.936;4.046;2023-01-19T14:03:51;23.03;;;11.50;;
19374;SDS011;9823;50.936;4.046;2023-01-19T14:06:28;26.60;;;12.30;;
19374;SDS011;9823;50.936;4.046;2023-01-19T14:09:05;28.43;;;12.37;;
19374;SDS011;9823;50.936;4.046;2023-01-19T14:11:34;29.73;;;11.60;;
19374;SDS011;9823;50.936;4.046;2023-01-19T14:14:02;25.97;;;11.27;;
19374;SDS011;9823;50.936;4.046;2023-01-19T14:16:31;28.33;;;12.60;;
19374;SDS011;9823;50.936;4.046;2023-01-19T14:19:00;21.97;;;11.50;;
19374;SDS011;9823;50.936;4.046;2023-01-19T14:21:40;24.37;;;11.53;;
19374;SDS011;9823;50.936;4.046;2023-01-19T14:29:26;21.93;;;10.77;;
19374;SDS011;9823;50.936;4.046;2023-01-19T14:34:41;24.20;;;11.97;;
19374;SDS011;9823;50.936;4.046;2023-01-19T14:39:43;23.63;;;10.60;;
19374;SDS011;9823;50.936;4.046;2023-01-19T14:42:29;23.13;;;11.87;;
19374;SDS011;9823;50.936;4.046;2023-01-19T14:44:59;23.70;;;11.57;;
19374;SDS011;9823;50.936;4.046;2023-01-19T14:49:59;25.03;;;10.30;;
19374;SDS011;9823;50.936;4.046;2023-01-19T14:52:35;17.83;;;9.40;;
19374;SDS011;9823;50.936;4.046;2023-01-19T14:55:02;20.30;;;9.97;;
19374;SDS011;9823;50.936;4.046;2023-01-19T14:57:35;19.77;;;9.43;;
19374;SDS011;9823;50.936;4.046;2023-01-19T15:00:09;23.47;;;9.80;;
19374;SDS011;9823;50.936;4.046;2023-01-19T15:02:36;20.60;;;10.07;;
19374;SDS011;9823;50.936;4.046;2023-01-19T15:05:02;28.90;;;11.17;;
19374;SDS011;9823;50.936;4.046;2023-01-19T15:07:28;22.10;;;10.17;;
19374;SDS011;9823;50.936;4.046;2023-01-19T15:09:54;26.77;;;11.37;;
19374;SDS011;9823;50.936;4.046;2023-01-19T15:12:22;20.70;;;9.43;;
19374;SDS011;9823;50.936;4.046;2023-01-19T15:14:52;21.40;;;9.93;;
19374;SDS011;9823;50.936;4.046;2023-01-19T15:17:18;23.67;;;9.97;;
19374;SDS011;9823;50.936;4.046;2023-01-19T15:19:52;19.63;;;10.13;;
19374;SDS011;9823;50.936;4.046;2023-01-19T15:22:18;25.17;;;10.63;;
19374;SDS011;9823;50.936;4.046;2023-01-19T15:24:46;22.23;;;10.37;;
19374;SDS011;9823;50.936;4.046;2023-01-19T15:27:12;21.70;;;10.17;;
19374;SDS011;9823;50.936;4.046;2023-01-19T15:29:38;23.27;;;10.47;;
19374;SDS011;9823;50.936;4.046;2023-01-19T15:32:05;23.27;;;10.47;;
19374;SDS011;9823;50.936;4.046;2023-01-19T15:34:31;26.23;;;10.70;;
19374;SDS011;9823;50.936;4.046;2023-01-19T15:36:57;24.97;;;11.40;;
19374;SDS011;9823;50.936;4.046;2023-01-19T15:39:31;20.40;;;9.47;;
19374;SDS011;9823;50.936;4.046;2023-01-19T15:41:57;23.67;;;10.67;;
19374;SDS011;9823;50.936;4.046;2023-01-19T15:44:23;24.37;;;10.70;;
19374;SDS011;9823;50.936;4.046;2023-01-19T15:46:49;23.50;;;10.13;;
19374;SDS011;9823;50.936;4.046;2023-01-19T15:49:15;23.67;;;10.27;;
19374;SDS011;9823;50.936;4.046;2023-01-19T15:51:48;22.20;;;10.30;;
19374;SDS011;9823;50.936;4.046;2023-01-19T15:54:16;24.00;;;11.23;;
19374;SDS011;9823;50.936;4.046;2023-01-19T15:56:44;22.20;;;11.27;;
19374;SDS011;9823;50.936;4.046;2023-01-19T15:59:11;24.73;;;10.97;;
19374;SDS011;9823;50.936;4.046;2023-01-19T16:01:37;24.37;;;11.17;;
19374;SDS011;9823;50.936;4.046;2023-01-19T16:04:07;24.27;;;11.07;;
19374;SDS011;9823;50.936;4.046;2023-01-19T16:06:36;27.77;;;11.60;;
19374;SDS011;9823;50.936;4.046;2023-01-19T16:09:02;22.43;;;11.37;;
19374;SDS011;9823;50.936;4.046;2023-01-19T16:11:30;23.10;;;9.97;;
19374;SDS011;9823;50.936;4.046;2023-01-19T16:13:57;24.27;;;10.33;;
19374;SDS011;9823;50.936;4.046;2023-01-19T16:16:25;25.47;;;11.30;;